Time;durP1;ratioP1;P1;durP2;ratioP2;P2;SDS_P1;SDS_P2;PMS_P1;PMS_P2;Temp;Humidity;BMP_temperature;BMP_pressure;BME280_temperature;BME280_humidity;BME280_pressure;Samples;Min_cycle;Max_cycle;Signal;HPM_P1;HPM_P2
2023/07/23 00:00:50;;;;;;;20.95;9.00;;;;;;;14.98;100.00;100773.56;5065289;28;20506;-65
2023/07/23 00:03:15;;;;;;;21.38;8.60;;;;;;;14.98;100.00;100768.25;5063621;28;20033;-61
2023/07/23 00:05:43;;;;;;;20.55;8.65;;;;;;;14.99;100.00;100766.44;5064512;28;20028;-62
2023/07/23 00:08:08;;;;;;;20.20;8.27;;;;;;;15.01;100.00;100761.97;5063389;28;20385;-66
2023/07/23 00:10:33;;;;;;;21.02;8.50;;;;;;;15.01;100.00;100763.75;5063460;28;20029;-62
2023/07/23 00:12:59;;;;;;;20.65;8.30;;;;;;;15.03;100.00;100753.94;5066139;28;20032;-66
2023/07/23 00:15:24;;;;;;;19.83;8.48;;;;;;;15.01;100.00;100746.00;5058309;28;20535;-62
2023/07/23 00:17:49;;;;;;;19.88;7.85;;;;;;;15.00;100.00;100749.59;5065248;28;20032;-67
2023/07/23 00:20:15;;;;;;;20.95;8.02;;;;;;;14.98;100.00;100746.94;5063768;28;20027;-64
2023/07/23 00:22:41;;;;;;;20.42;8.13;;;;;;;14.98;100.00;100738.97;5063803;28;20365;-66
2023/07/23 00:25:08;;;;;;;19.85;7.95;;;;;;;14.98;100.00;100738.97;5064683;28;20032;-64
2023/07/23 00:27:34;;;;;;;19.92;8.18;;;;;;;14.94;100.00;100731.91;5063010;28;20020;-64
2023/07/23 00:30:00;;;;;;;19.20;7.88;;;;;;;14.93;100.00;100726.63;5065536;28;20028;-66
2023/07/23 00:32:25;;;;;;;19.30;7.47;;;;;;;14.93;100.00;100726.63;5062177;28;20075;-66
2023/07/23 00:34:51;;;;;;;20.38;7.53;;;;;;;14.89;100.00;100723.13;5065101;28;20029;-66
2023/07/23 00:37:16;;;;;;;20.13;8.00;;;;;;;14.92;100.00;100715.06;5063136;28;20391;-67
2023/07/23 00:39:42;;;;;;;19.25;7.65;;;;;;;14.90;100.00;100711.56;5063676;28;20460;-64
2023/07/23 00:42:07;;;;;;;19.08;7.88;;;;;;;14.89;100.00;100707.16;5064359;28;20115;-69
2023/07/23 00:44:33;;;;;;;19.42;7.20;;;;;;;14.86;100.00;100701.88;5062428;28;20419;-68
2023/07/23 00:47:02;;;;;;;20.40;7.53;;;;;;;14.84;100.00;100698.38;5065407;28;20040;-69
2023/07/23 00:49:27;;;;;;;19.25;7.20;;;;;;;14.84;100.00;100692.16;5058801;28;20456;-69
2023/07/23 00:51:53;;;;;;;18.52;7.05;;;;;;;14.79;100.00;100686.91;5064823;28;20036;-68
2023/07/23 00:54:19;;;;;;;20.40;7.05;;;;;;;14.76;100.00;100676.31;5062629;28;20032;-69
2023/07/23 00:56:46;;;;;;;18.48;6.70;;;;;;;14.74;100.00;100676.34;5063699;28;20036;-68
2023/07/23 00:59:12;;;;;;;19.00;6.70;;;;;;;14.72;100.00;100670.19;5063247;28;20051;-68
2023/07/23 01:01:37;;;;;;;19.80;7.00;;;;;;;14.72;100.00;100670.19;5062783;28;20029;-68
2023/07/23 01:04:03;;;;;;;18.35;6.65;;;;;;;14.73;100.00;100661.28;5064413;28;20029;-68
2023/07/23 01:06:31;;;;;;;19.73;7.00;;;;;;;14.69;100.00;100656.91;5060801;28;20391;-68
2023/07/23 01:08:58;;;;;;;19.15;7.30;;;;;;;14.69;100.00;100658.69;5057855;28;20017;-68
2023/07/23 01:11:25;;;;;;;20.20;7.43;;;;;;;14.68;100.00;100655.16;5064614;28;20031;-68
2023/07/23 01:13:51;;;;;;;19.73;7.35;;;;;;;14.67;100.00;100647.22;5062114;28;20040;-68
2023/07/23 01:16:18;;;;;;;19.02;7.20;;;;;;;14.68;100.00;100640.97;5063741;28;20052;-68
2023/07/23 01:18:43;;;;;;;18.92;7.47;;;;;;;14.69;100.00;100632.09;5061644;28;20476;-68
2023/07/23 01:21:14;;;;;;;21.77;7.57;;;;;;;14.69;100.00;100634.75;5062466;28;20124;-68
2023/07/23 01:23:40;;;;;;;19.40;7.28;;;;;;;14.70;100.00;100623.22;5063390;28;20047;-68
2023/07/23 01:26:07;;;;;;;19.90;7.43;;;;;;;14.70;100.00;100623.22;5061855;28;20476;-68
2023/07/23 01:28:33;;;;;;;18.77;7.22;;;;;;;14.69;100.00;100624.97;5064317;28;20040;-68
2023/07/23 01:30:59;;;;;;;19.35;7.15;;;;;;;14.65;100.00;100617.97;5061528;28;20086;-68
2023/07/23 01:33:25;;;;;;;22.42;7.90;;;;;;;14.67;100.00;100618.81;5064395;28;20028;-69
2023/07/23 01:35:54;;;;;;;19.65;7.57;;;;;;;14.69;100.00;100621.44;5061420;28;20444;-61
2023/07/23 01:38:21;;;;;;;19.40;7.43;;;;;;;14.66;100.00;100617.03;5063829;28;20022;-66
2023/07/23 01:40:47;;;;;;;20.05;8.00;;;;;;;14.72;100.00;100605.44;5062194;28;20025;-66
2023/07/23 01:43:13;;;;;;;19.83;7.75;;;;;;;14.66;100.00;100606.41;5062539;28;20021;-66
2023/07/23 01:45:45;;;;;;;19.73;8.05;;;;;;;14.67;100.00;100601.97;5063355;28;20398;-66
2023/07/23 01:48:11;;;;;;;21.58;8.07;;;;;;;14.63;100.00;100607.34;5062505;28;20063;-67
2023/07/23 01:50:36;;;;;;;19.42;7.90;;;;;;;14.61;100.00;100593.19;5063452;28;20037;-67
2023/07/23 01:53:02;;;;;;;20.25;8.30;;;;;;;14.59;100.00;100594.06;5060930;28;20028;-66
2023/07/23 01:55:27;;;;;;;18.95;7.72;;;;;;;14.56;100.00;100589.69;5064421;28;20029;-66
2023/07/23 01:57:53;;;;;;;20.42;8.30;;;;;;;14.55;100.00;100582.63;5061283;28;20349;-65
2023/07/23 02:00:19;;;;;;;19.13;7.78;;;;;;;14.58;100.00;100582.56;5063443;28;20451;-67
2023/07/23 02:02:44;;;;;;;19.40;7.97;;;;;;;14.56;100.00;100579.06;5062247;28;20055;-66
2023/07/23 02:05:10;;;;;;;20.00;7.80;;;;;;;14.55;100.00;100564.00;5062053;28;20025;-67
2023/07/23 02:07:35;;;;;;;19.73;7.93;;;;;;;14.59;100.00;100571.03;5062427;28;20574;-61
2023/07/23 02:10:01;;;;;;;19.30;7.78;;;;;;;14.61;100.00;100563.91;5060994;28;20029;-66
2023/07/23 02:12:26;;;;;;;20.92;7.55;;;;;;;14.62;100.00;100560.38;5064118;28;20020;-66
2023/07/23 02:14:52;;;;;;;19.65;7.10;;;;;;;14.70;100.00;100551.38;5061279;28;20119;-67
2023/07/23 02:17:17;;;;;;;20.13;7.38;;;;;;;14.78;100.00;100552.09;5065070;28;20052;-67
2023/07/23 02:19:42;;;;;;;19.75;6.95;;;;;;;14.82;100.00;100549.38;5066469;28;20032;-66
2023/07/23 02:22:08;;;;;;;20.13;6.82;;;;;;;14.85;100.00;100548.44;5065766;28;20037;-65
2023/07/23 02:24:33;;;;;;;19.58;6.85;;;;;;;14.88;100.00;100547.50;5067550;28;20033;-67
2023/07/23 02:26:58;;;;;;;20.25;7.25;;;;;;;14.92;100.00;100538.56;5064559;28;20033;-66
2023/07/23 02:29:24;;;;;;;18.90;6.80;;;;;;;14.95;100.00;100534.03;5067960;28;20047;-66
2023/07/23 02:31:49;;;;;;;19.50;7.00;;;;;;;14.97;100.00;100529.59;5065516;28;20124;-66
2023/07/23 02:34:14;;;;;;;19.58;7.03;;;;;;;15.03;100.00;100525.03;5066413;28;20471;-67
2023/07/23 02:36:40;;;;;;;19.02;6.60;;;;;;;15.05;100.00;100525.91;5066436;28;20025;-67
2023/07/23 02:39:05;;;;;;;18.27;6.55;;;;;;;15.03;100.00;100525.03;5064949;28;20040;-67
2023/07/23 02:41:30;;;;;;;18.55;6.40;;;;;;;15.04;100.00;100522.34;5068094;28;20067;-67
2023/07/23 02:43:56;;;;;;;17.90;6.20;;;;;;;15.05;100.00;100513.47;5064070;28;20492;-65
2023/07/23 02:46:21;;;;;;;18.00;6.28;;;;;;;15.07;100.00;100511.66;5066997;28;20549;-67
2023/07/23 02:48:46;;;;;;;19.30;6.32;;;;;;;15.09;100.00;100524.94;5065491;28;20028;-67
2023/07/23 02:51:12;;;;;;;18.38;6.03;;;;;;;15.16;100.00;100505.28;5065887;28;20032;-67
2023/07/23 02:53:37;;;;;;;19.00;6.13;;;;;;;15.17;100.00;100515.00;5066540;28;20024;-66
2023/07/23 02:56:03;;;;;;;17.92;6.10;;;;;;;15.25;100.00;100502.44;5064462;28;20108;-67
2023/07/23 02:58:28;;;;;;;18.17;6.18;;;;;;;15.29;100.00;100492.56;5067344;28;20036;-67
2023/07/23 03:00:57;;;;;;;18.08;5.80;;;;;;;15.29;100.00;100500.56;5064003;28;20080;-65
2023/07/23 03:03:23;;;;;;;18.65;6.40;;;;;;;15.31;100.00;100499.63;5066967;28;20027;-67
2023/07/23 03:05:48;;;;;;;19.10;6.40;;;;;;;15.37;100.00;100492.44;5064897;28;20379;-67
2023/07/23 03:08:13;;;;;;;19.38;6.07;;;;;;;15.41;100.00;100494.13;5065423;28;20032;-66
2023/07/23 03:10:42;;;;;;;18.35;5.93;;;;;;;15.47;100.00;100494.00;5066266;28;20029;-65
2023/07/23 03:13:08;;;;;;;19.73;5.88;;;;;;;15.53;100.00;100491.19;5064546;28;20032;-66
2023/07/23 03:15:34;;;;;;;17.80;5.72;;;;;;;15.54;100.00;100490.28;5066567;28;20495;-66
2023/07/23 03:18:00;;;;;;;16.80;5.50;;;;;;;15.58;100.00;100496.41;5063809;28;20025;-62
2023/07/23 03:20:25;;;;;;;18.20;5.70;;;;;;;15.57;100.00;100484.03;5066888;28;20033;-67
2023/07/23 03:22:51;;;;;;;16.52;5.50;;;;;;;15.64;100.00;100489.19;5064382;28;20392;-64
2023/07/23 03:25:16;;;;;;;15.77;5.38;;;;;;;15.59;100.00;100483.06;5065580;28;20150;-65
2023/07/23 03:27:42;;;;;;;17.25;5.60;;;;;;;15.59;100.00;100488.38;5065211;28;20056;-64
2023/07/23 03:30:08;;;;;;;17.38;5.45;;;;;;;15.60;100.00;100490.16;5063931;28;20108;-67
2023/07/23 03:32:34;;;;;;;18.08;5.88;;;;;;;15.60;100.00;100492.81;5066325;28;20116;-66
2023/07/23 03:34:59;;;;;;;18.77;5.57;;;;;;;15.63;100.00;100478.56;5063201;28;20454;-63
2023/07/23 03:37:24;;;;;;;17.02;5.20;;;;;;;15.61;100.00;100483.91;5066955;28;20494;-62
2023/07/23 03:39:50;;;;;;;16.80;5.28;;;;;;;15.67;100.00;100475.78;5064033;28;20476;-65
2023/07/23 03:42:15;;;;;;;18.65;5.60;;;;;;;15.64;100.00;100483.84;5064970;28;20033;-66
2023/07/23 03:44:40;;;;;;;16.60;5.25;;;;;;;15.67;100.00;100481.09;5065411;28;20108;-67
2023/07/23 03:47:14;;;;;;;16.67;5.10;;;;;;;15.69;100.00;100479.28;5063612;28;20025;-67
2023/07/23 03:49:40;;;;;;;18.58;5.20;;;;;;;15.67;100.00;100470.44;5065288;28;20032;-66
2023/07/23 03:52:06;;;;;;;17.63;5.22;;;;;;;15.68;100.00;100472.22;5063655;28;20029;-67
2023/07/23 03:54:32;;;;;;;17.48;5.45;;;;;;;15.67;100.00;100481.09;5066261;28;20036;-67
2023/07/23 03:56:57;;;;;;;15.15;5.13;;;;;;;15.68;100.00;100484.63;5062814;28;20083;-66
2023/07/23 03:59:28;;;;;;;18.90;5.18;;;;;;;15.69;100.00;100484.59;5065812;28;20049;-67
2023/07/23 04:01:53;;;;;;;16.50;5.00;;;;;;;15.71;100.00;100475.72;5063462;28;20411;-65
2023/07/23 04:04:19;;;;;;;17.90;5.07;;;;;;;15.71;100.00;100473.03;5065069;28;20070;-66
2023/07/23 04:06:44;;;;;;;16.40;5.00;;;;;;;15.75;100.00;100477.41;5064572;28;20529;-66
2023/07/23 04:09:09;;;;;;;17.30;5.13;;;;;;;15.79;100.00;100479.97;5063653;28;20380;-67
2023/07/23 04:11:35;;;;;;;16.60;4.95;;;;;;;15.78;100.00;100475.56;5065625;28;20368;-68
2023/07/23 04:14:00;;;;;;;16.02;5.10;;;;;;;15.75;100.00;100480.06;5062707;28;20051;-68
2023/07/23 04:16:25;;;;;;;17.05;5.22;;;;;;;15.73;100.00;100479.19;5064405;28;20033;-68
2023/07/23 04:18:51;;;;;;;17.25;5.05;;;;;;;15.77;100.00;100472.91;5063231;28;20044;-68
2023/07/23 04:21:18;;;;;;;15.20;4.82;;;;;;;15.80;100.00;100481.75;5064878;28;20475;-68
2023/07/23 04:23:47;;;;;;;16.45;4.82;;;;;;;15.80;100.00;100481.75;5064089;28;20073;-68
2023/07/23 04:26:13;;;;;;;15.15;4.80;;;;;;;15.83;100.00;100479.00;5063776;28;20033;-68
2023/07/23 04:28:38;;;;;;;17.60;5.03;;;;;;;15.86;100.00;100475.41;5064843;28;20037;-68
2023/07/23 04:31:04;;;;;;;14.82;4.80;;;;;;;15.91;100.00;100477.94;5062466;28;20025;-69
2023/07/23 04:33:29;;;;;;;16.23;5.00;;;;;;;15.89;100.00;100474.44;5065562;28;20108;-68
2023/07/23 04:35:54;;;;;;;16.65;4.95;;;;;;;15.88;100.00;100481.56;5062506;28;20025;-68
2023/07/23 04:38:20;;;;;;;17.38;4.82;;;;;;;15.91;100.00;100486.81;5064535;28;20480;-69
2023/07/23 04:40:48;;;;;;;15.95;4.65;;;;;;;15.98;100.00;100491.09;5061761;28;20178;-68
2023/07/23 04:43:14;;;;;;;17.15;4.97;;;;;;;15.97;100.00;100489.31;5063743;28;20056;-68
2023/07/23 04:45:39;;;;;;;15.48;4.82;;;;;;;15.98;100.00;100485.75;5064322;28;20463;-67
2023/07/23 04:48:05;;;;;;;15.70;4.78;;;;;;;15.99;100.00;100476.84;5062439;28;20029;-68
2023/07/23 04:50:30;;;;;;;18.05;4.78;;;;;;;15.99;100.00;100479.53;5065280;28;20025;-68
2023/07/23 04:52:56;;;;;;;15.45;4.82;;;;;;;16.01;100.00;100474.16;5061884;28;20029;-68
2023/07/23 04:55:21;;;;;;;15.75;4.80;;;;;;;16.00;100.00;100472.38;5064444;28;20037;-67
2023/07/23 04:57:46;;;;;;;16.05;4.72;;;;;;;16.04;100.00;100474.94;5063120;28;20028;-66
2023/07/23 05:00:12;;;;;;;15.30;4.72;;;;;;;16.00;100.00;100464.41;5062764;28;20207;-67
2023/07/23 05:02:38;;;;;;;16.23;4.97;;;;;;;15.71;100.00;100471.25;5064464;28;20040;-66
2023/07/23 05:05:03;;;;;;;17.88;5.35;;;;;;;15.44;100.00;100473.63;5061625;28;20033;-67
2023/07/23 05:07:29;;;;;;;15.88;4.90;;;;;;;15.37;100.00;100465.81;5064954;28;20036;-67
2023/07/23 05:09:54;;;;;;;18.60;5.38;;;;;;;15.45;100.00;100472.72;5060884;28;20354;-67
2023/07/23 05:12:19;;;;;;;16.88;4.93;;;;;;;15.47;100.00;100480.69;5063728;28;20029;-66
2023/07/23 05:14:50;;;;;;;17.00;5.05;;;;;;;15.43;100.00;100484.31;5063084;28;20024;-66
2023/07/23 05:17:15;;;;;;;19.02;4.97;;;;;;;15.46;100.00;100494.91;5063094;28;20029;-66
2023/07/23 05:19:41;;;;;;;15.90;4.80;;;;;;;15.50;100.00;100488.59;5063647;28;20032;-67
2023/07/23 05:22:06;;;;;;;17.10;4.68;;;;;;;15.46;100.00;100484.25;5062012;28;20025;-67
2023/07/23 05:24:31;;;;;;;18.45;5.13;;;;;;;15.35;100.00;100479.16;5064701;28;20028;-67
2023/07/23 05:26:58;;;;;;;14.93;4.82;;;;;;;15.10;100.00;100482.31;5061484;28;20033;-66
2023/07/23 05:29:23;;;;;;;17.45;5.30;;;;;;;14.82;100.00;100479.31;5064191;28;20471;-64
2023/07/23 05:31:49;;;;;;;16.90;5.50;;;;;;;14.69;100.00;100478.66;5062308;28;20105;-67
2023/07/23 05:34:16;;;;;;;17.95;5.30;;;;;;;14.76;100.00;100479.44;5062707;28;20033;-65
2023/07/23 05:36:42;;;;;;;16.75;5.10;;;;;;;14.79;100.00;100484.69;5063344;28;20190;-67
2023/07/23 05:39:09;;;;;;;17.92;5.07;;;;;;;14.89;100.00;100482.75;5061692;28;20054;-67
2023/07/23 05:41:34;;;;;;;17.48;5.38;;;;;;;15.07;100.00;100463.75;5064280;28;20502;-66
2023/07/23 05:44:00;;;;;;;17.75;4.90;;;;;;;15.27;100.00;100465.13;5061169;28;20025;-67
2023/07/23 05:46:25;;;;;;;15.52;5.05;;;;;;;15.36;100.00;100469.38;5064079;28;20025;-64
2023/07/23 05:48:51;;;;;;;18.17;5.20;;;;;;;15.32;100.00;100474.75;5062020;28;20033;-67
2023/07/23 05:51:16;;;;;;;16.92;5.40;;;;;;;14.94;100.00;100475.53;5062431;28;20036;-67
2023/07/23 05:53:41;;;;;;;17.75;5.07;;;;;;;14.98;100.00;100475.47;5063081;28;20029;-67
2023/07/23 05:56:07;;;;;;;16.48;4.93;;;;;;;15.16;100.00;100471.53;5061578;28;20116;-67
2023/07/23 05:58:32;;;;;;;16.83;4.82;;;;;;;15.33;100.00;100476.53;5063149;28;20086;-67
2023/07/23 06:00:57;;;;;;;16.17;4.90;;;;;;;15.48;100.00;100470.00;5060685;28;20060;-67
2023/07/23 06:03:23;;;;;;;16.23;4.72;;;;;;;15.60;100.00;100467.97;5063727;28;20024;-67
2023/07/23 06:05:48;;;;;;;16.35;4.80;;;;;;;15.62;100.00;100474.13;5062147;28;20047;-67
2023/07/23 06:08:14;;;;;;;16.15;4.75;;;;;;;15.61;100.00;100469.69;5062184;28;20029;-66
2023/07/23 06:10:41;;;;;;;15.55;4.80;;;;;;;15.50;100.00;100475.28;5063517;28;20035;-62
2023/07/23 06:13:06;;;;;;;16.67;5.05;;;;;;;15.30;100.00;100471.28;5061107;28;20086;-66
2023/07/23 06:15:31;;;;;;;17.05;4.95;;;;;;;14.97;100.00;100478.16;5064355;28;20032;-64
2023/07/23 06:17:57;;;;;;;17.45;5.32;;;;;;;14.64;100.00;100481.41;5061285;28;20112;-67
2023/07/23 06:20:22;;;;;;;17.50;5.50;;;;;;;14.43;100.00;100487.97;5063470;28;20076;-66
2023/07/23 06:22:48;;;;;;;17.02;5.60;;;;;;;14.25;100.00;100481.16;5062256;28;20040;-67
2023/07/23 06:25:13;;;;;;;16.95;5.65;;;;;;;14.06;100.00;100485.03;5061985;28;20024;-67
2023/07/23 06:27:38;;;;;;;17.77;5.53;;;;;;;13.92;100.00;100486.13;5063208;28;20028;-66
2023/07/23 06:30:04;;;;;;;17.52;5.55;;;;;;;13.89;100.00;100488.84;5060858;28;20112;-66
2023/07/23 06:32:30;;;;;;;17.70;5.75;;;;;;;13.94;100.00;100488.75;5063958;28;20048;-66
2023/07/23 06:34:55;;;;;;;17.80;6.00;;;;;;;14.14;100.00;100491.09;5061095;28;20029;-64
2023/07/23 06:37:20;;;;;;;17.90;5.30;;;;;;;14.37;100.00;100498.72;5063339;28;20108;-66
2023/07/23 06:39:46;;;;;;;17.27;5.30;;;;;;;14.61;100.00;100497.41;5062118;28;20128;-66
2023/07/23 06:42:11;;;;;;;16.92;5.00;;;;;;;14.81;100.00;100505.03;5061291;28;20029;-67
2023/07/23 06:44:38;;;;;;;17.38;5.40;;;;;;;15.06;100.00;100511.69;5057959;28;20029;-65
2023/07/23 06:47:03;;;;;;;17.80;5.43;;;;;;;15.22;100.00;100514.91;5062962;28;20033;-67
2023/07/23 06:49:30;;;;;;;16.75;5.43;;;;;;;15.13;100.00;100515.97;5058582;28;20365;-64
2023/07/23 06:51:55;;;;;;;17.02;5.25;;;;;;;14.90;100.00;100524.41;5063246;28;20022;-65
2023/07/23 06:54:21;;;;;;;17.48;5.70;;;;;;;14.64;100.00;100515.97;5060291;28;20094;-66
2023/07/23 06:56:47;;;;;;;17.70;5.60;;;;;;;14.44;100.00;100520.75;5060306;28;20021;-66
2023/07/23 06:59:12;;;;;;;17.67;5.85;;;;;;;14.24;100.00;100524.63;5063140;28;20150;-66
2023/07/23 07:01:37;;;;;;;19.40;6.20;;;;;;;14.00;100.00;100532.97;5058860;28;20494;-66
2023/07/23 07:04:03;;;;;;;18.08;6.03;;;;;;;13.87;100.00;100527.81;5064957;28;20047;-64
2023/07/23 07:06:29;;;;;;;18.52;6.50;;;;;;;13.80;100.00;100535.91;5064594;28;20040;-63
2023/07/23 07:08:54;;;;;;;18.90;6.68;;;;;;;13.84;100.00;100538.47;5065753;28;20075;-61
2023/07/23 07:11:20;;;;;;;21.00;6.95;;;;;;;13.74;100.00;100534.19;5065875;28;20020;-62
2023/07/23 07:13:45;;;;;;;19.95;6.97;;;;;;;13.72;100.00;100530.69;5064359;28;20025;-63
2023/07/23 07:16:10;;;;;;;19.17;7.00;;;;;;;13.63;100.00;100557.34;5066927;28;20113;-62
2023/07/23 07:18:36;;;;;;;19.90;6.63;;;;;;;13.63;100.00;100530.81;5063134;28;20606;-66
2023/07/23 07:21:02;;;;;;;20.48;7.20;;;;;;;13.62;100.00;100537.03;5066437;28;20479;-64
2023/07/23 07:23:31;;;;;;;20.02;7.07;;;;;;;13.58;100.00;100539.69;5063411;28;20388;-68
2023/07/23 07:25:57;;;;;;;20.70;7.65;;;;;;;13.59;100.00;100540.59;5060411;28;20495;-72
2023/07/23 07:28:24;;;;;;;19.88;7.40;;;;;;;13.58;100.00;100542.34;5066037;28;20125;-62
2023/07/23 07:30:49;;;;;;;20.38;7.65;;;;;;;13.58;100.00;100542.34;5063525;28;20029;-61
2023/07/23 07:33:14;;;;;;;20.17;7.60;;;;;;;13.62;100.00;100542.34;5067137;28;20379;-67
2023/07/23 07:35:40;;;;;;;21.83;7.78;;;;;;;13.62;100.00;100548.53;5063484;28;20033;-65
2023/07/23 07:38:05;;;;;;;21.27;8.25;;;;;;;13.65;100.00;100550.28;5065101;28;20033;-66
2023/07/23 07:40:31;;;;;;;20.58;7.20;;;;;;;13.66;100.00;100541.38;5066660;28;20017;-65
2023/07/23 07:42:56;;;;;;;19.90;7.50;;;;;;;13.72;100.00;100551.94;5064458;28;20029;-62
2023/07/23 07:45:22;;;;;;;20.40;7.43;;;;;;;13.76;100.00;100551.88;5064936;28;20117;-63
2023/07/23 07:47:47;;;;;;;20.42;7.78;;;;;;;13.80;100.00;100554.50;5064554;28;20028;-62
2023/07/23 07:50:12;;;;;;;20.90;7.80;;;;;;;13.78;100.00;100559.81;5065587;28;20040;-62
2023/07/23 07:52:38;;;;;;;20.63;8.00;;;;;;;13.84;100.00;100559.75;5064544;28;20115;-64
2023/07/23 07:55:03;;;;;;;20.73;7.53;;;;;;;13.90;100.00;100546.38;5064194;28;20100;-62
2023/07/23 07:57:29;;;;;;;19.90;7.32;;;;;;;14.02;100.00;100549.75;5065800;28;20029;-64
2023/07/23 07:59:55;;;;;;;20.67;7.40;;;;;;;14.02;100.00;100560.38;5062773;28;20404;-62
2023/07/23 08:02:20;;;;;;;20.77;7.85;;;;;;;14.06;100.00;100546.16;5063382;28;20499;-66
2023/07/23 08:04:46;;;;;;;19.98;7.45;;;;;;;14.13;100.00;100558.44;5066119;28;20070;-62
2023/07/23 08:07:12;;;;;;;19.65;7.15;;;;;;;14.16;100.00;100545.13;5062675;28;20130;-73
2023/07/23 08:09:41;;;;;;;21.02;7.78;;;;;;;14.24;100.00;100553.84;5065667;28;20435;-72
2023/07/23 08:12:07;;;;;;;21.30;7.65;;;;;;;14.20;100.00;100553.91;5062757;28;20021;-70
2023/07/23 08:14:36;;;;;;;20.25;7.80;;;;;;;14.27;100.00;100551.16;5065662;28;20536;-72
2023/07/23 08:17:01;;;;;;;19.30;6.97;;;;;;;14.25;100.00;100549.41;5057924;28;20471;-69
2023/07/23 08:19:27;;;;;;;20.48;7.40;;;;;;;14.24;100.00;100545.88;5060427;28;20050;-63
2023/07/23 08:21:53;;;;;;;19.30;6.90;;;;;;;14.27;100.00;100544.94;5063057;28;20061;-63
2023/07/23 08:24:18;;;;;;;19.70;7.25;;;;;;;14.29;100.00;100552.00;5064675;28;20021;-62
2023/07/23 08:26:47;;;;;;;19.25;6.60;;;;;;;14.38;100.00;100548.31;5063310;28;20040;-62
2023/07/23 08:29:13;;;;;;;19.02;6.65;;;;;;;14.50;100.00;100549.88;5063178;28;20366;-62
2023/07/23 08:31:39;;;;;;;19.17;6.43;;;;;;;14.61;100.00;100555.03;5064250;28;20032;-63
2023/07/23 08:34:04;;;;;;;17.38;5.60;;;;;;;14.64;100.00;100555.88;5063843;28;20479;-66
2023/07/23 08:36:31;;;;;;;19.00;6.00;;;;;;;14.76;100.00;100548.59;5056030;28;20047;-66
2023/07/23 08:38:57;;;;;;;18.02;5.43;;;;;;;14.81;100.00;100550.28;5064319;28;20077;-67
2023/07/23 08:41:34;;;;;;;15.68;5.15;;;;;;;14.82;100.00;100535.19;5062608;28;20025;-67
2023/07/23 08:44:11;;;;;;;16.10;5.10;;;;;;;14.91;100.00;100548.34;5063558;28;20033;-66
2023/07/23 08:47:10;;;;;;;17.02;5.30;;;;;;;14.90;100.00;100540.38;5064967;28;20033;-67
2023/07/23 08:49:40;;;;;;;14.75;4.93;;;;;;;14.95;100.00;100544.69;5061227;28;20021;-63
2023/07/23 08:52:06;;;;;;;16.38;4.85;;;;;;;14.97;100.00;100547.34;5061907;28;20511;-61
2023/07/23 08:54:32;;;;;;;15.95;4.82;;;;;;;14.97;100.00;100542.03;5062633;28;20391;-60
2023/07/23 08:56:58;;;;;;;14.32;4.40;;;;;;;14.96;100.00;100529.63;5064832;28;20116;-61
2023/07/23 08:59:26;;;;;;;14.05;4.40;;;;;;;15.02;100.00;100545.47;5060236;28;20056;-67
2023/07/23 09:01:52;;;;;;;15.57;4.50;;;;;;;14.98;100.00;100538.44;5056290;28;20029;-65
2023/07/23 09:04:17;;;;;;;14.90;4.50;;;;;;;14.95;100.00;100539.38;5064178;28;20112;-64
2023/07/23 09:06:43;;;;;;;14.65;4.40;;;;;;;14.90;100.00;100549.25;5064813;28;20093;-63
2023/07/23 09:09:10;;;;;;;15.25;4.70;;;;;;;14.94;100.00;100550.94;5061587;28;20472;-66
2023/07/23 09:11:36;;;;;;;14.93;4.65;;;;;;;15.03;100.00;100541.91;5064240;28;20410;-71
2023/07/23 09:14:06;;;;;;;14.93;4.55;;;;;;;15.03;100.00;100552.56;5062760;28;20025;-70
2023/07/23 09:16:32;;;;;;;14.00;4.70;;;;;;;15.04;100.00;100556.09;5063357;28;20021;-70
2023/07/23 09:18:57;;;;;;;15.82;4.80;;;;;;;14.95;100.00;100546.50;5061188;28;20071;-68
2023/07/23 09:21:24;;;;;;;15.80;4.70;;;;;;;14.90;100.00;100559.00;5062567;28;20020;-65
2023/07/23 09:23:51;;;;;;;15.95;4.78;;;;;;;14.90;100.00;100556.34;5063122;28;20361;-68
2023/07/23 09:26:20;;;;;;;14.68;4.70;;;;;;;14.90;100.00;100564.34;5062610;28;20029;-67
2023/07/23 09:28:45;;;;;;;15.18;4.60;;;;;;;14.91;100.00;100566.97;5062605;28;20376;-67
2023/07/23 09:31:11;;;;;;;16.77;5.00;;;;;;;14.94;100.00;100561.59;5063238;28;20028;-69
2023/07/23 09:33:37;;;;;;;16.23;4.70;;;;;;;14.89;100.00;100576.75;5062198;28;20081;-63
2023/07/23 09:36:03;;;;;;;15.60;4.93;;;;;;;14.80;100.00;100583.09;5063907;28;20032;-66
2023/07/23 09:38:30;;;;;;;16.80;5.10;;;;;;;14.80;100.00;100582.25;5057705;28;20033;-66
2023/07/23 09:40:55;;;;;;;16.08;4.82;;;;;;;14.74;100.00;100580.56;5056793;28;20077;-62
2023/07/23 09:43:21;;;;;;;17.67;5.65;;;;;;;14.72;100.00;100573.50;5064665;28;20028;-73
2023/07/23 09:45:47;;;;;;;18.50;5.68;;;;;;;14.81;100.00;100579.56;5062186;28;20050;-64
2023/07/23 09:48:17;;;;;;;17.45;5.32;;;;;;;14.84;100.00;100575.06;5062189;28;20025;-65
2023/07/23 09:50:49;;;;;;;18.42;5.80;;;;;;;14.85;100.00;100585.69;5062987;28;20120;-65
2023/07/23 09:53:15;;;;;;;18.15;5.72;;;;;;;14.90;100.00;100588.28;5062329;28;20055;-75
2023/07/23 09:55:42;;;;;;;18.10;5.68;;;;;;;14.86;100.00;100591.91;5062661;28;20036;-75
2023/07/23 09:58:09;;;;;;;19.33;5.65;;;;;;;14.70;100.00;100588.63;5062852;28;20064;-66
2023/07/23 10:00:36;;;;;;;18.80;5.78;;;;;;;14.72;100.00;100600.09;5061032;28;20407;-66
2023/07/23 10:03:01;;;;;;;18.80;5.88;;;;;;;14.69;100.00;100594.84;5061555;28;20067;-66
2023/07/23 10:05:29;;;;;;;18.90;5.80;;;;;;;14.70;100.00;100607.25;5063835;28;20049;-66
2023/07/23 10:07:54;;;;;;;18.23;5.85;;;;;;;14.68;100.00;100598.41;5060685;28;20055;-66
2023/07/23 10:10:20;;;;;;;18.67;5.40;;;;;;;14.67;100.00;100615.28;5064222;28;20068;-66
2023/07/23 10:12:46;;;;;;;17.23;5.03;;;;;;;14.60;100.00;100612.66;5061329;28;20036;-65
2023/07/23 10:15:11;;;;;;;17.20;5.47;;;;;;;14.58;100.00;100617.13;5063163;28;20037;-65
2023/07/23 10:17:44;;;;;;;17.77;5.50;;;;;;;14.66;100.00;100616.19;5062369;28;20021;-64
2023/07/23 10:20:12;;;;;;;17.50;5.28;;;;;;;14.69;100.00;100627.63;5063026;28;20483;-65
2023/07/23 10:22:39;;;;;;;16.75;5.22;;;;;;;14.73;100.00;100623.16;5062497;28;20033;-66
2023/07/23 10:25:32;;;;;;;16.65;5.07;;;;;;;14.74;100.00;100615.16;5062045;28;20040;-66
2023/07/23 10:28:06;;;;;;;18.02;5.32;;;;;;;14.75;100.00;100624.00;5049712;28;20051;-66
2023/07/23 10:30:39;;;;;;;17.75;5.38;;;;;;;14.72;100.00;100610.75;5062905;28;20459;-66
2023/07/23 10:33:10;;;;;;;16.95;5.25;;;;;;;14.76;100.00;100623.97;5060905;28;20033;-65
2023/07/23 10:36:02;;;;;;;16.95;5.40;;;;;;;14.78;100.00;100621.28;5062335;28;20487;-66
2023/07/23 10:38:33;;;;;;;17.70;5.60;;;;;;;14.81;100.00;100622.13;5058592;28;20021;-65
2023/07/23 10:40:59;;;;;;;17.50;5.50;;;;;;;14.81;100.00;100621.25;5067268;28;20032;-66
2023/07/23 10:43:36;;;;;;;17.92;5.75;;;;;;;14.87;100.00;100631.78;5064220;28;20025;-66
2023/07/23 10:46:04;;;;;;;17.40;5.40;;;;;;;14.91;100.00;100622.84;5066952;28;20039;-70
2023/07/23 10:48:51;;;;;;;17.63;5.40;;;;;;;14.97;100.00;100627.19;5065120;28;20055;-63
2023/07/23 10:51:19;;;;;;;17.15;5.68;;;;;;;14.98;100.00;100612.97;5064675;28;20021;-64
2023/07/23 10:54:05;;;;;;;18.00;5.60;;;;;;;15.09;100.00;100634.09;5066843;28;20054;-64
2023/07/23 10:56:35;;;;;;;17.23;5.38;;;;;;;15.16;100.00;100622.44;5062242;28;20485;-63
2023/07/23 10:59:13;;;;;;;16.88;5.47;;;;;;;15.16;100.00;100633.06;5066381;28;20028;-71
2023/07/23 11:01:43;;;;;;;17.40;5.32;;;;;;;15.30;100.00;100643.47;5065630;28;20041;-72
2023/07/23 11:04:24;;;;;;;17.08;5.50;;;;;;;15.39;100.00;100623.78;5065555;28;20202;-71
2023/07/23 11:07:01;;;;;;;16.42;5.43;;;;;;;15.45;100.00;100616.56;5067435;28;20032;-72